createdAt,value
2023-05-02T00:01:41.427Z,33.81
2023-05-02T00:04:08.078Z,34.03
2023-05-02T00:06:35.352Z,33.98
2023-05-02T00:09:01.843Z,34.02
2023-05-02T00:11:28.325Z,33.84
2023-05-02T00:13:54.714Z,33.83
2023-05-02T00:16:21.509Z,33.96
2023-05-02T00:18:49.203Z,34.27
2023-05-02T00:21:15.567Z,34.10
2023-05-02T00:23:42.149Z,33.97
2023-05-02T00:26:09.434Z,34.03
2023-05-02T00:28:38.221Z,33.84
2023-05-02T00:31:04.941Z,34.13
2023-05-02T00:33:31.468Z,34.00
2023-05-02T00:35:57.918Z,34.20
2023-05-02T00:38:24.295Z,34.10
2023-05-02T00:40:53.502Z,34.23
2023-05-02T00:43:20.582Z,34.23
2023-05-02T00:45:49.868Z,34.02
2023-05-02T00:48:17.886Z,34.18
2023-05-02T00:50:44.418Z,33.90
2023-05-02T00:53:11.243Z,33.74
2023-05-02T00:55:37.732Z,33.88
2023-05-02T00:58:08.291Z,33.81
2023-05-02T01:00:47.261Z,33.60
2023-05-02T01:03:28.065Z,33.72
2023-05-02T01:06:16.615Z,33.64
2023-05-02T01:09:02.052Z,33.90
2023-05-02T01:11:36.246Z,34.05
2023-05-02T01:14:04.502Z,34.00
2023-05-02T01:16:30.972Z,34.03
2023-05-02T01:18:57.785Z,33.82
2023-05-02T01:21:24.212Z,33.79
2023-05-02T01:23:57.752Z,33.67
2023-05-02T01:26:27.050Z,33.52
2023-05-02T01:28:53.621Z,33.86
2023-05-02T01:31:20.000Z,33.88
2023-05-02T01:33:46.521Z,34.12
2023-05-02T01:36:13.186Z,34.00
2023-05-02T01:38:39.619Z,33.88
2023-05-02T01:41:07.187Z,33.95
2023-05-02T01:43:33.928Z,34.07
2023-05-02T01:46:00.397Z,33.87
2023-05-02T01:48:27.501Z,33.85
2023-05-02T01:50:53.935Z,34.03
2023-05-02T01:53:22.458Z,33.92
2023-05-02T01:55:48.946Z,33.84
2023-05-02T01:58:15.450Z,34.15
2023-05-02T02:00:42.087Z,33.93
2023-05-02T02:03:08.551Z,34.12
2023-05-02T02:05:35.036Z,34.12
2023-05-02T02:08:03.440Z,34.31
2023-05-02T02:10:30.910Z,34.12
2023-05-02T02:13:06.190Z,34.19
2023-05-02T02:15:34.577Z,34.17
2023-05-02T02:18:01.596Z,34.24
2023-05-02T02:20:28.534Z,34.23
2023-05-02T02:22:54.937Z,34.55
2023-05-02T02:25:21.375Z,34.22
2023-05-02T02:27:48.025Z,34.41
2023-05-02T02:30:16.477Z,34.23
2023-05-02T02:32:42.948Z,34.18
2023-05-02T02:35:09.422Z,34.13
2023-05-02T02:37:37.951Z,34.28
2023-05-02T02:40:09.758Z,34.25
2023-05-02T02:42:46.772Z,34.17
2023-05-02T02:45:13.433Z,34.42
2023-05-02T02:47:43.020Z,34.21
2023-05-02T02:50:11.899Z,34.30
2023-05-02T02:52:50.577Z,34.44
2023-05-02T02:55:16.927Z,34.35
2023-05-02T02:57:57.971Z,34.44
2023-05-02T03:00:25.375Z,34.36
2023-05-02T03:02:51.960Z,34.36
2023-05-02T03:05:19.803Z,34.59
2023-05-02T03:07:46.203Z,34.41
2023-05-02T03:10:12.702Z,34.40
2023-05-02T03:12:40.115Z,34.45
2023-05-02T03:15:14.694Z,34.64
2023-05-02T03:17:42.527Z,34.68
2023-05-02T03:20:09.092Z,34.63
2023-05-02T03:22:35.477Z,34.47
2023-05-02T03:25:01.957Z,34.37
2023-05-02T03:27:28.406Z,34.66
2023-05-02T03:29:55.294Z,34.49
2023-05-02T03:32:21.967Z,34.50
2023-05-02T03:34:49.499Z,34.52
2023-05-02T03:37:16.148Z,34.37
2023-05-02T03:39:42.692Z,34.47
2023-05-02T03:42:09.106Z,34.45
2023-05-02T03:44:35.558Z,34.71
2023-05-02T03:47:02.939Z,34.48
2023-05-02T03:49:34.897Z,34.67
2023-05-02T03:52:02.980Z,34.74
2023-05-02T03:54:33.133Z,34.80
2023-05-02T03:57:01.056Z,34.60
2023-05-02T03:59:34.404Z,34.60
2023-05-02T04:02:07.197Z,34.52
2023-05-02T04:04:41.105Z,34.60
2023-05-02T04:07:15.585Z,34.67
2023-05-02T04:09:42.209Z,34.73
2023-05-02T04:12:10.942Z,34.44
2023-05-02T04:14:41.465Z,34.41
2023-05-02T04:17:08.671Z,34.51
2023-05-02T04:19:45.608Z,34.41
2023-05-02T04:22:13.552Z,34.76
2023-05-02T04:24:44.869Z,34.48
2023-05-02T04:27:13.118Z,34.69
2023-05-02T04:29:41.810Z,34.66
2023-05-02T04:32:10.240Z,34.33
2023-05-02T04:34:37.115Z,34.42
2023-05-02T04:37:03.946Z,34.26
2023-05-02T04:39:32.458Z,34.75
2023-05-02T04:42:03.496Z,34.85
2023-05-02T04:44:34.190Z,34.81
2023-05-02T04:47:00.721Z,34.38
2023-05-02T04:49:27.647Z,34.45
2023-05-02T04:51:54.027Z,34.31
2023-05-02T04:54:21.924Z,34.85
2023-05-02T04:56:48.514Z,34.94
2023-05-02T04:59:15.771Z,34.77
2023-05-02T05:01:42.440Z,34.41
2023-05-02T05:04:09.845Z,33.98
2023-05-02T05:06:36.562Z,34.63
2023-05-02T05:09:04.176Z,34.59
2023-05-02T05:11:30.598Z,34.38
2023-05-02T05:13:57.188Z,34.44
2023-05-02T05:16:25.158Z,34.65
2023-05-02T05:18:53.874Z,34.69
2023-05-02T05:21:20.464Z,34.82
2023-05-02T05:23:48.293Z,34.70
2023-05-02T05:26:22.223Z,34.32
2023-05-02T05:28:50.249Z,34.38
2023-05-02T05:31:17.627Z,34.58
2023-05-02T05:33:49.181Z,34.33
2023-05-02T05:36:16.309Z,34.37
2023-05-02T05:38:42.991Z,34.62
2023-05-02T05:41:11.174Z,34.57
2023-05-02T05:43:41.855Z,34.28
2023-05-02T05:46:08.746Z,34.38
2023-05-02T05:48:37.103Z,34.46
2023-05-02T05:51:04.797Z,34.41
2023-05-02T05:53:32.021Z,34.49
2023-05-02T05:55:59.679Z,34.31
2023-05-02T05:58:26.224Z,34.35
2023-05-02T06:00:54.933Z,34.44
2023-05-02T06:03:21.753Z,34.55
2023-05-02T06:05:48.552Z,34.13
2023-05-02T06:08:15.093Z,34.29
2023-05-02T06:10:41.684Z,34.31
2023-05-02T06:13:08.152Z,34.14
2023-05-02T06:15:38.870Z,34.01
2023-05-02T06:18:06.543Z,33.81
2023-05-02T06:20:33.064Z,33.92
2023-05-02T06:22:59.519Z,33.97
2023-05-02T06:25:25.972Z,33.72
2023-05-02T06:27:52.475Z,34.04
2023-05-02T06:30:18.975Z,34.10
2023-05-02T06:32:45.503Z,34.15
2023-05-02T06:35:12.260Z,34.44
2023-05-02T06:37:38.704Z,34.07
2023-05-02T06:40:05.605Z,34.45
2023-05-02T06:42:32.033Z,34.36
2023-05-02T06:44:58.527Z,34.32
2023-05-02T06:47:25.799Z,34.08
2023-05-02T06:49:53.000Z,34.05
2023-05-02T06:52:19.539Z,33.87
2023-05-02T06:54:46.069Z,33.67
2023-05-02T06:57:12.584Z,33.82
2023-05-02T06:59:39.051Z,33.98
2023-05-02T07:02:06.236Z,34.03
2023-05-02T07:04:32.747Z,34.16
2023-05-02T07:06:59.180Z,34.29
2023-05-02T07:09:25.749Z,34.30
2023-05-02T07:11:55.021Z,34.08
2023-05-02T07:14:21.966Z,34.17
2023-05-02T07:16:48.653Z,34.38
2023-05-02T07:19:15.473Z,34.30
2023-05-02T07:21:42.075Z,34.36
2023-05-02T07:24:08.590Z,34.15
2023-05-02T07:26:35.050Z,34.33
2023-05-02T07:29:01.602Z,34.54
2023-05-02T07:31:28.259Z,34.18
2023-05-02T07:33:54.726Z,34.28
2023-05-02T07:36:21.203Z,34.30
2023-05-02T07:38:47.669Z,34.65
2023-05-02T07:41:14.831Z,34.33
2023-05-02T07:43:41.282Z,34.49
2023-05-02T07:46:07.820Z,34.46
2023-05-02T07:48:34.856Z,34.48
2023-05-02T07:51:10.760Z,34.61
2023-05-02T07:53:37.149Z,34.47
2023-05-02T07:56:03.928Z,34.46
2023-05-02T07:58:30.399Z,34.47
2023-05-02T08:00:57.235Z,34.28
2023-05-02T08:03:23.970Z,34.51
2023-05-02T08:05:50.513Z,34.65
2023-05-02T08:08:17.050Z,34.40
2023-05-02T08:10:43.805Z,33.95
2023-05-02T08:13:10.520Z,33.40
2023-05-02T08:15:37.115Z,33.29
2023-05-02T08:18:03.646Z,32.95
2023-05-02T08:20:30.155Z,33.05
2023-05-02T08:22:58.000Z,32.67
2023-05-02T08:25:26.374Z,32.62
2023-05-02T08:27:52.880Z,32.86
2023-05-02T08:30:19.443Z,33.16
2023-05-02T08:32:46.181Z,33.37
2023-05-02T08:35:15.665Z,33.62
2023-05-02T08:37:42.233Z,33.54
2023-05-02T08:40:11.363Z,33.18
2023-05-02T08:42:37.926Z,33.05
2023-05-02T08:45:04.668Z,32.75
2023-05-02T08:47:31.190Z,32.64
2023-05-02T08:49:58.446Z,32.55
2023-05-02T08:52:25.128Z,32.36
2023-05-02T08:54:51.626Z,32.21
2023-05-02T08:57:18.103Z,32.27
2023-05-02T08:59:44.659Z,31.91
2023-05-02T09:02:23.257Z,32.00
2023-05-02T09:04:51.007Z,32.17
2023-05-02T09:07:17.488Z,32.49
2023-05-02T09:09:43.960Z,32.46
2023-05-02T09:12:10.433Z,32.15
2023-05-02T09:14:37.020Z,32.21
2023-05-02T09:17:03.900Z,32.37
2023-05-02T09:19:30.660Z,32.08
2023-05-02T09:22:01.262Z,32.29
2023-05-02T09:24:27.691Z,32.52
2023-05-02T09:26:58.284Z,32.46
2023-05-02T09:29:25.102Z,32.57
2023-05-02T09:31:56.149Z,32.70
2023-05-02T09:34:23.270Z,32.88
2023-05-02T09:36:54.644Z,33.13
2023-05-02T09:39:25.718Z,32.95
2023-05-02T09:41:52.786Z,33.19
2023-05-02T09:44:19.904Z,32.84
2023-05-02T09:46:49.951Z,33.24
2023-05-02T09:49:19.117Z,33.23
2023-05-02T09:51:46.550Z,33.22
2023-05-02T09:54:13.402Z,33.41
2023-05-02T09:56:56.810Z,33.24
2023-05-02T09:59:23.668Z,33.23
2023-05-02T10:01:57.354Z,33.39
2023-05-02T10:04:24.157Z,33.58
2023-05-02T10:06:51.502Z,33.38
2023-05-02T10:09:21.393Z,33.29
2023-05-02T10:11:50.954Z,33.46
2023-05-02T10:14:17.552Z,33.28
2023-05-02T10:17:05.170Z,33.08
2023-05-02T10:19:38.973Z,33.04
2023-05-02T10:22:05.750Z,33.08
2023-05-02T10:24:32.360Z,32.88
2023-05-02T10:26:59.156Z,33.03
2023-05-02T10:29:29.228Z,32.99
2023-05-02T10:31:56.419Z,32.87
2023-05-02T10:34:22.898Z,32.98
2023-05-02T10:36:49.316Z,32.89
2023-05-02T10:39:16.500Z,33.02
2023-05-02T10:41:43.101Z,32.59
2023-05-02T10:44:09.679Z,32.83
2023-05-02T10:46:43.410Z,32.55
2023-05-02T10:49:10.880Z,32.83
2023-05-02T10:51:38.039Z,32.81
2023-05-02T10:54:16.980Z,32.77
2023-05-02T10:57:05.618Z,32.79
2023-05-02T10:59:33.568Z,33.14
2023-05-02T11:02:01.598Z,32.81
2023-05-02T11:04:46.916Z,32.61
2023-05-02T11:07:13.592Z,32.40
2023-05-02T11:09:40.093Z,32.25
2023-05-02T11:12:07.112Z,31.87
2023-05-02T11:14:39.751Z,31.72
2023-05-02T11:17:07.462Z,31.57
2023-05-02T11:19:43.063Z,31.48
2023-05-02T11:22:29.800Z,31.04
2023-05-02T11:24:56.283Z,30.99
2023-05-02T11:27:28.936Z,31.07
2023-05-02T11:29:55.906Z,31.25
2023-05-02T11:32:25.522Z,31.33
2023-05-02T11:34:52.847Z,31.57
2023-05-02T11:37:20.052Z,31.50
2023-05-02T11:39:51.526Z,31.59
2023-05-02T11:42:30.548Z,31.48
2023-05-02T11:44:57.270Z,31.46
2023-05-02T11:47:23.768Z,31.72
2023-05-02T11:49:50.240Z,31.65
2023-05-02T11:52:16.904Z,31.40
2023-05-02T11:54:43.469Z,31.64
2023-05-02T11:57:09.965Z,31.71
2023-05-02T11:59:52.266Z,31.58
2023-05-02T12:02:19.136Z,31.52
2023-05-02T12:04:45.734Z,31.59
2023-05-02T12:07:12.407Z,31.61
2023-05-02T12:09:52.417Z,31.73
2023-05-02T12:12:22.318Z,31.97
2023-05-02T12:14:48.876Z,31.77
2023-05-02T12:17:15.299Z,31.96
2023-05-02T12:19:41.738Z,31.33
2023-05-02T12:22:08.431Z,31.15
2023-05-02T12:24:36.227Z,31.46
2023-05-02T12:27:29.131Z,31.61
2023-05-02T12:29:57.425Z,31.31
2023-05-02T12:32:30.525Z,31.11
2023-05-02T12:34:57.460Z,31.38
2023-05-02T12:37:24.499Z,31.37
2023-05-02T12:39:50.959Z,31.83
2023-05-02T12:42:17.614Z,31.26
2023-05-02T12:44:44.700Z,31.27
2023-05-02T12:47:11.926Z,31.40
2023-05-02T12:49:57.456Z,31.38
2023-05-02T12:52:43.139Z,31.51
2023-05-02T12:55:19.301Z,31.03
2023-05-02T12:57:45.892Z,30.71
2023-05-02T13:00:12.633Z,30.79
2023-05-02T13:02:39.148Z,31.48
2023-05-02T13:05:15.040Z,31.67
2023-05-02T13:07:41.600Z,31.68
2023-05-02T13:10:08.296Z,31.64
2023-05-02T13:12:37.578Z,31.73
2023-05-02T13:15:06.631Z,31.38
2023-05-02T13:17:33.477Z,31.01
2023-05-02T13:20:02.275Z,30.70
2023-05-02T13:22:29.391Z,30.42
2023-05-02T13:24:55.984Z,30.59
2023-05-02T13:27:22.891Z,30.52
2023-05-02T13:29:49.496Z,29.92
2023-05-02T13:32:16.410Z,29.16
2023-05-02T13:34:43.006Z,29.02
2023-05-02T13:37:10.073Z,28.92
2023-05-02T13:39:36.594Z,28.65
2023-05-02T13:42:06.589Z,28.80
2023-05-02T13:44:33.071Z,28.18
2023-05-02T13:46:59.637Z,28.39
2023-05-02T13:49:26.445Z,28.36
2023-05-02T13:51:52.958Z,28.16
2023-05-02T13:54:21.415Z,28.01
2023-05-02T13:56:47.864Z,27.96
2023-05-02T13:59:14.505Z,28.14
2023-05-02T14:01:41.266Z,27.68
2023-05-02T14:04:09.051Z,28.19
2023-05-02T14:06:36.028Z,28.02
2023-05-02T14:09:02.721Z,27.58
2023-05-02T14:11:29.197Z,27.72
2023-05-02T14:13:58.148Z,28.35
2023-05-02T14:16:24.870Z,27.82
2023-05-02T14:18:51.502Z,27.29
2023-05-02T14:21:18.104Z,27.45
2023-05-02T14:23:44.544Z,27.57
2023-05-02T14:26:11.053Z,27.54
2023-05-02T14:28:39.059Z,27.52
2023-05-02T14:31:07.217Z,27.79
2023-05-02T14:33:33.733Z,27.91
2023-05-02T14:36:00.312Z,27.86
2023-05-02T14:38:26.797Z,27.85
2023-05-02T14:40:53.233Z,27.76
2023-05-02T14:43:19.846Z,27.20
2023-05-02T14:45:46.337Z,27.47
2023-05-02T14:48:14.351Z,27.76
2023-05-02T14:50:40.965Z,27.49
2023-05-02T14:53:07.540Z,27.39
2023-05-02T14:55:37.331Z,27.42
2023-05-02T14:58:03.887Z,26.94
2023-05-02T15:00:30.516Z,26.80
2023-05-02T15:02:57.004Z,26.43
2023-05-02T15:05:23.675Z,27.15
2023-05-02T15:07:50.340Z,26.54
2023-05-02T15:10:16.871Z,26.79
2023-05-02T15:12:43.412Z,27.17
2023-05-02T15:15:10.078Z,27.29
2023-05-02T15:17:36.504Z,27.11
2023-05-02T15:20:04.586Z,27.19
2023-05-02T15:22:31.564Z,27.52
2023-05-02T15:24:58.038Z,27.63
2023-05-02T15:27:24.668Z,27.41
2023-05-02T15:29:51.170Z,27.33
2023-05-02T15:32:17.776Z,27.82
2023-05-02T15:34:44.616Z,27.74
2023-05-02T15:37:11.278Z,28.03
2023-05-02T15:39:37.753Z,27.87
2023-05-02T15:42:07.173Z,28.23
2023-05-02T15:44:39.505Z,27.84
2023-05-02T15:47:06.178Z,28.20
2023-05-02T15:49:33.450Z,28.01
2023-05-02T15:52:01.002Z,27.85
2023-05-02T15:54:27.544Z,28.04
2023-05-02T15:56:54.033Z,27.57
2023-05-02T15:59:21.084Z,27.59
2023-05-02T16:01:47.598Z,27.07
2023-05-02T16:04:14.463Z,27.23
2023-05-02T16:06:44.056Z,27.12
2023-05-02T16:09:11.223Z,27.64
2023-05-02T16:11:37.923Z,27.53
2023-05-02T16:14:04.492Z,28.22
2023-05-02T16:16:31.134Z,27.92
2023-05-02T16:18:57.766Z,28.32
2023-05-02T16:21:25.078Z,28.16
2023-05-02T16:23:52.313Z,28.03
2023-05-02T16:26:20.229Z,28.51
2023-05-02T16:28:46.811Z,28.39
2023-05-02T16:31:14.949Z,28.25
2023-05-02T16:33:42.813Z,28.40
2023-05-02T16:36:09.773Z,28.30
2023-05-02T16:38:36.707Z,28.21
2023-05-02T16:41:03.923Z,28.26
2023-05-02T16:43:30.455Z,28.15
2023-05-02T16:46:14.961Z,28.12
2023-05-02T16:48:41.436Z,28.17
2023-05-02T16:51:08.262Z,28.26
2023-05-02T16:53:34.897Z,28.31
2023-05-02T16:56:01.817Z,28.46
2023-05-02T16:58:28.788Z,28.93
2023-05-02T17:00:55.502Z,28.65
2023-05-02T17:03:22.100Z,28.62
2023-05-02T17:05:48.666Z,28.90
2023-05-02T17:08:16.953Z,28.76
2023-05-02T17:10:47.798Z,29.00
2023-05-02T17:13:14.596Z,29.05
2023-05-02T17:15:41.184Z,29.23
2023-05-02T17:18:07.746Z,28.90
2023-05-02T17:20:34.346Z,29.32
2023-05-02T17:23:01.621Z,29.24
2023-05-02T17:25:28.165Z,29.47
2023-05-02T17:27:54.713Z,29.31
2023-05-02T17:30:21.638Z,29.18
2023-05-02T17:32:48.206Z,28.83
2023-05-02T17:35:14.880Z,28.77
2023-05-02T17:37:41.404Z,28.69
2023-05-02T17:40:08.187Z,28.82
2023-05-02T17:42:34.737Z,28.89
2023-05-02T17:45:01.322Z,28.83
2023-05-02T17:47:27.928Z,28.22
2023-05-02T17:49:54.490Z,28.20
2023-05-02T17:52:21.441Z,27.87
2023-05-02T17:54:48.031Z,27.69
2023-05-02T17:57:15.022Z,28.06
2023-05-02T17:59:41.657Z,27.77
2023-05-02T18:02:10.144Z,27.80
2023-05-02T18:04:37.304Z,27.73
2023-05-02T18:07:06.164Z,27.77
2023-05-02T18:09:32.909Z,27.63
2023-05-02T18:12:00.590Z,28.24
2023-05-02T18:14:27.137Z,28.37
2023-05-02T18:16:53.641Z,28.15
2023-05-02T18:19:20.270Z,28.54
2023-05-02T18:21:46.755Z,28.17
2023-05-02T18:24:13.384Z,28.55
2023-05-02T18:26:39.970Z,28.38
2023-05-02T18:29:09.327Z,28.14
2023-05-02T18:31:37.380Z,28.31
2023-05-02T18:34:04.583Z,28.55
2023-05-02T18:36:38.830Z,28.51
2023-05-02T18:39:09.340Z,28.89
2023-05-02T18:41:36.422Z,28.98
2023-05-02T18:44:08.460Z,29.10
2023-05-02T18:46:35.016Z,28.92
2023-05-02T18:49:01.687Z,29.24
2023-05-02T18:51:29.080Z,29.35
2023-05-02T18:53:55.796Z,29.50
2023-05-02T18:56:22.556Z,29.30
2023-05-02T18:58:53.348Z,29.50
2023-05-02T19:01:21.949Z,29.67
2023-05-02T19:03:50.081Z,29.59
2023-05-02T19:06:18.734Z,29.63
2023-05-02T19:08:45.829Z,29.80
2023-05-02T19:11:13.454Z,29.69
2023-05-02T19:13:42.252Z,29.88
2023-05-02T19:16:45.598Z,29.94
2023-05-02T19:19:19.046Z,29.75
2023-05-02T19:21:48.293Z,30.24
2023-05-02T19:24:20.779Z,29.69
2023-05-02T19:27:03.910Z,29.77
2023-05-02T19:29:35.985Z,29.99
2023-05-02T19:32:03.093Z,29.86
2023-05-02T19:34:38.565Z,29.97
2023-05-02T19:37:07.415Z,30.15
2023-05-02T19:39:35.708Z,30.23
2023-05-02T19:42:03.311Z,30.13
2023-05-02T19:44:30.060Z,29.98
2023-05-02T19:46:56.534Z,30.09
2023-05-02T19:49:24.275Z,30.07
2023-05-02T19:51:50.919Z,30.19
2023-05-02T19:54:17.710Z,30.23
2023-05-02T19:56:49.560Z,30.35
2023-05-02T19:59:16.155Z,30.55
2023-05-02T20:01:42.715Z,30.30
2023-05-02T20:04:09.595Z,30.03
2023-05-02T20:06:36.505Z,30.09
2023-05-02T20:09:03.930Z,30.27
2023-05-02T20:11:30.924Z,30.21
2023-05-02T20:13:57.589Z,30.39
2023-05-02T20:16:24.358Z,30.45
2023-05-02T20:18:52.820Z,30.24
2023-05-02T20:21:20.782Z,30.29
2023-05-02T20:23:47.530Z,30.24
2023-05-02T20:26:15.702Z,30.44
2023-05-02T20:28:42.201Z,30.58
2023-05-02T20:31:08.668Z,29.89
2023-05-02T20:33:44.420Z,30.12
2023-05-02T20:36:13.572Z,30.27
2023-05-02T20:38:42.750Z,30.05
2023-05-02T20:41:12.656Z,29.66
2023-05-02T20:43:44.785Z,29.81
2023-05-02T20:46:12.238Z,29.59
2023-05-02T20:48:38.880Z,28.69
2023-05-02T20:51:05.359Z,29.09
2023-05-02T20:53:31.889Z,29.00
2023-05-02T20:55:58.429Z,29.25
2023-05-02T20:58:24.916Z,29.14
2023-05-02T21:00:52.745Z,29.51
2023-05-02T21:03:22.269Z,29.63
2023-05-02T21:05:52.696Z,29.55
2023-05-02T21:08:19.378Z,29.51
2023-05-02T21:10:45.999Z,29.37
2023-05-02T21:13:12.563Z,29.20
2023-05-02T21:15:39.403Z,28.91
2023-05-02T21:18:07.189Z,29.07
2023-05-02T21:20:33.896Z,28.71
2023-05-02T21:23:00.437Z,29.13
2023-05-02T21:25:26.958Z,29.17
2023-05-02T21:27:53.584Z,29.18
2023-05-02T21:30:20.207Z,29.34
2023-05-02T21:32:46.693Z,29.57
2023-05-02T21:35:13.231Z,29.42
2023-05-02T21:37:39.773Z,29.61
2023-05-02T21:40:06.969Z,29.48
2023-05-02T21:42:33.521Z,29.60
2023-05-02T21:45:00.867Z,29.53
2023-05-02T21:47:27.409Z,29.79
2023-05-02T21:49:54.192Z,30.00
2023-05-02T21:52:20.678Z,29.60
2023-05-02T21:54:49.954Z,29.60
2023-05-02T21:57:16.394Z,29.74
2023-05-02T21:59:43.126Z,29.76
2023-05-02T22:02:09.834Z,29.97
2023-05-02T22:04:36.520Z,29.94
2023-05-02T22:07:03.006Z,30.46
2023-05-02T22:09:32.120Z,30.31
2023-05-02T22:11:59.845Z,30.52
2023-05-02T22:14:33.821Z,30.28
2023-05-02T22:17:10.549Z,30.16
2023-05-02T22:19:37.556Z,30.24
2023-05-02T22:22:05.332Z,30.27
2023-05-02T22:24:31.965Z,30.50
2023-05-02T22:26:58.502Z,30.46
2023-05-02T22:29:24.992Z,30.38
2023-05-02T22:31:52.132Z,30.73
2023-05-02T22:34:19.087Z,30.97
2023-05-02T22:36:45.995Z,30.65
2023-05-02T22:39:14.354Z,30.62
2023-05-02T22:41:43.573Z,30.76
2023-05-02T22:44:10.321Z,30.49
2023-05-02T22:46:38.135Z,30.87
2023-05-02T22:49:05.999Z,30.65
2023-05-02T22:51:33.131Z,30.73
2023-05-02T22:53:59.847Z,31.03
2023-05-02T22:56:26.590Z,30.52
2023-05-02T22:58:53.198Z,30.55
2023-05-02T23:01:19.590Z,30.57
2023-05-02T23:03:46.163Z,30.87
2023-05-02T23:06:12.649Z,30.96
2023-05-02T23:08:39.098Z,30.86
2023-05-02T23:11:05.610Z,31.03
2023-05-02T23:13:32.059Z,30.93
2023-05-02T23:15:58.704Z,30.54
2023-05-02T23:18:25.168Z,30.88
2023-05-02T23:20:51.822Z,30.49
2023-05-02T23:23:18.287Z,30.85
2023-05-02T23:25:44.680Z,30.63
2023-05-02T23:28:12.121Z,30.76
2023-05-02T23:30:39.401Z,30.81
2023-05-02T23:33:05.869Z,31.12
2023-05-02T23:35:32.521Z,30.89
2023-05-02T23:37:59.332Z,31.18
2023-05-02T23:40:26.923Z,31.11
2023-05-02T23:42:53.495Z,30.81
2023-05-02T23:45:19.979Z,31.01
2023-05-02T23:47:46.906Z,30.99
2023-05-02T23:50:13.408Z,31.12
2023-05-02T23:52:39.853Z,30.86
2023-05-02T23:55:10.492Z,31.17
2023-05-02T23:57:37.242Z,31.02
